createdAt,value
2022-12-08T00:01:36.326Z,100282.50
2022-12-08T00:04:06.521Z,100276.13
2022-12-08T00:06:53.345Z,100292.38
2022-12-08T00:09:23.934Z,100263.44
2022-12-08T00:11:54.232Z,100276.31
2022-12-08T00:14:25.099Z,100276.66
2022-12-08T00:16:53.065Z,100229.09
2022-12-08T00:19:22.669Z,100177.16
2022-12-08T00:21:50.974Z,100260.69
2022-12-08T00:24:19.552Z,100273.78
2022-12-08T00:26:47.711Z,100262.16
2022-12-08T00:29:17.517Z,100249.28
2022-12-08T00:31:45.864Z,100265.72
2022-12-08T00:34:14.383Z,100264.88
2022-12-08T00:36:44.352Z,100252.94
2022-12-08T00:39:13.691Z,100258.81
2022-12-08T00:41:59.234Z,100256.50
2022-12-08T00:44:27.236Z,100254.19
2022-12-08T00:46:55.293Z,100238.38
2022-12-08T00:49:23.762Z,100241.31
2022-12-08T00:51:52.969Z,100245.81
2022-12-08T00:54:22.910Z,100242.47
2022-12-08T00:56:51.126Z,100241.00
2022-12-08T00:59:19.296Z,100232.91
2022-12-08T01:01:48.592Z,100206.88
2022-12-08T01:04:18.351Z,100231.53
2022-12-08T01:06:47.099Z,100215.41
2022-12-08T01:09:17.343Z,100226.63
2022-12-08T01:11:45.761Z,100224.59
2022-12-08T01:14:13.927Z,100223.66
2022-12-08T01:16:42.295Z,100224.19
2022-12-08T01:19:12.931Z,100222.13
2022-12-08T01:21:42.202Z,100222.44
2022-12-08T01:24:12.477Z,100229.00
2022-12-08T01:26:42.242Z,100227.56
2022-12-08T01:29:10.194Z,100225.13
2022-12-08T01:31:38.586Z,100166.16
2022-12-08T01:34:07.017Z,100237.38
2022-12-08T01:36:37.101Z,100231.19
2022-12-08T01:39:07.429Z,100208.09
2022-12-08T01:41:37.555Z,100230.38
2022-12-08T01:44:38.460Z,100235.81
2022-12-08T01:47:07.650Z,100223.44
2022-12-08T01:49:37.473Z,100243.47
2022-12-08T01:52:12.194Z,100236.28
2022-12-08T01:54:48.527Z,100225.28
2022-12-08T01:57:21.685Z,100221.09
2022-12-08T01:59:54.158Z,100124.19
2022-12-08T02:02:25.253Z,100213.94
2022-12-08T02:04:53.195Z,100122.13
2022-12-08T02:07:22.569Z,100214.78
2022-12-08T02:09:50.443Z,100194.72
2022-12-08T02:12:18.444Z,100211.66
2022-12-08T02:14:46.235Z,100172.97
2022-12-08T02:17:30.905Z,100166.25
2022-12-08T02:20:24.142Z,100193.97
2022-12-08T02:22:56.011Z,100204.41
2022-12-08T02:25:33.364Z,100182.94
2022-12-08T02:28:09.322Z,100172.97
2022-12-08T02:30:48.245Z,100211.91
2022-12-08T02:34:03.272Z,100188.06
2022-12-08T02:36:36.485Z,100184.50
2022-12-08T02:39:13.922Z,100183.34
2022-12-08T02:41:50.299Z,100141.53
2022-12-08T02:44:25.541Z,100180.00
2022-12-08T02:46:59.074Z,100133.88
2022-12-08T02:49:31.268Z,100167.53
2022-12-08T02:52:29.175Z,100173.19
2022-12-08T02:55:02.156Z,100175.81
2022-12-08T02:57:41.590Z,100161.56
2022-12-08T03:00:13.812Z,100163.06
2022-12-08T03:02:49.132Z,99929.75
2022-12-08T03:05:32.179Z,100113.66
2022-12-08T03:08:08.963Z,100118.25
2022-12-08T03:10:44.385Z,100123.47
2022-12-08T03:13:16.306Z,100112.16
2022-12-08T03:15:49.487Z,100123.03
2022-12-08T03:18:20.466Z,100130.97
2022-12-08T03:20:49.477Z,100112.09
2022-12-08T03:23:19.907Z,100116.34
2022-12-08T03:25:56.554Z,100131.13
2022-12-08T03:28:24.866Z,100119.69
2022-12-08T03:30:56.868Z,100104.41
2022-12-08T03:33:30.302Z,100128.06
2022-12-08T03:36:00.013Z,100122.00
2022-12-08T03:38:27.893Z,100075.13
2022-12-08T03:41:13.863Z,100084.75
2022-12-08T03:43:41.712Z,100118.19
2022-12-08T03:46:09.674Z,100121.63
2022-12-08T03:48:37.514Z,100118.59
2022-12-08T03:51:05.474Z,100108.75
2022-12-08T03:53:33.312Z,100105.19
2022-12-08T03:56:04.318Z,100103.78
2022-12-08T03:58:37.181Z,100101.03
2022-12-08T04:01:05.334Z,100092.81
2022-12-08T04:03:33.105Z,100062.63
2022-12-08T04:06:00.946Z,100045.81
2022-12-08T04:08:29.473Z,100095.13
2022-12-08T04:10:57.473Z,100083.41
2022-12-08T04:13:26.756Z,100009.03
2022-12-08T04:15:54.659Z,100058.00
2022-12-08T04:18:23.076Z,100077.94
2022-12-08T04:20:50.893Z,100086.72
2022-12-08T04:23:18.713Z,100034.44
2022-12-08T04:25:46.508Z,100071.00
2022-12-08T04:28:14.340Z,100068.59
2022-12-08T04:30:43.699Z,100066.56
2022-12-08T04:33:11.613Z,100065.03
2022-12-08T04:35:39.449Z,100063.56
2022-12-08T04:38:07.317Z,100055.50
2022-12-08T04:40:35.252Z,100058.03
2022-12-08T04:43:03.022Z,100057.69
2022-12-08T04:45:30.810Z,100046.25
2022-12-08T04:48:01.539Z,100059.78
2022-12-08T04:50:29.553Z,100032.66
2022-12-08T04:52:57.424Z,100016.97
2022-12-08T04:55:25.361Z,100041.28
2022-12-08T04:57:53.252Z,100020.56
2022-12-08T05:00:21.394Z,100046.69
2022-12-08T05:02:49.255Z,100043.84
2022-12-08T05:05:18.746Z,100041.13
2022-12-08T05:07:46.605Z,100004.59
2022-12-08T05:10:14.509Z,100016.28
2022-12-08T05:12:42.373Z,100030.88
2022-12-08T05:15:10.522Z,100040.44
2022-12-08T05:17:38.767Z,100046.38
2022-12-08T05:20:07.817Z,100035.03
2022-12-08T05:22:37.005Z,99974.66
2022-12-08T05:25:05.164Z,100028.97
2022-12-08T05:27:32.905Z,100034.22
2022-12-08T05:30:00.647Z,100019.88
2022-12-08T05:32:28.460Z,100030.03
2022-12-08T05:34:56.141Z,100019.56
2022-12-08T05:37:23.912Z,100031.56
2022-12-08T05:39:52.940Z,100028.19
2022-12-08T05:42:24.774Z,100026.53
2022-12-08T05:44:53.168Z,100020.25
2022-12-08T05:47:20.850Z,100011.81
2022-12-08T05:49:48.534Z,99992.38
2022-12-08T05:52:16.945Z,100025.25
2022-12-08T05:54:44.824Z,100020.56
2022-12-08T05:57:13.908Z,100003.91
2022-12-08T05:59:41.657Z,100009.88
2022-12-08T06:02:09.857Z,100015.47
2022-12-08T06:04:37.815Z,100010.13
2022-12-08T06:07:05.586Z,100010.84
2022-12-08T06:09:33.340Z,100007.50
2022-12-08T06:12:02.167Z,100013.88
2022-12-08T06:14:31.235Z,100011.66
2022-12-08T06:16:59.018Z,100004.13
2022-12-08T06:19:26.820Z,100005.81
2022-12-08T06:21:54.514Z,100011.03
2022-12-08T06:24:22.364Z,100000.47
2022-12-08T06:26:50.129Z,100007.25
2022-12-08T06:29:18.042Z,100007.03
2022-12-08T06:31:47.230Z,100006.25
2022-12-08T06:34:15.032Z,100021.72
2022-12-08T06:36:42.853Z,100012.72
2022-12-08T06:39:10.737Z,100019.84
2022-12-08T06:41:58.925Z,99990.47
2022-12-08T06:44:26.882Z,100001.34
2022-12-08T06:46:55.958Z,100002.53
2022-12-08T06:49:23.678Z,100013.63
2022-12-08T06:51:51.446Z,100006.09
2022-12-08T06:54:19.196Z,99985.97
2022-12-08T06:56:46.959Z,100004.41
2022-12-08T06:59:14.687Z,100013.00
2022-12-08T07:01:42.412Z,100003.78
2022-12-08T07:04:11.576Z,100004.31
2022-12-08T07:06:39.401Z,100006.66
2022-12-08T07:09:07.493Z,100012.94
2022-12-08T07:11:35.270Z,100018.56
2022-12-08T07:14:02.972Z,100015.66
2022-12-08T07:16:30.774Z,100016.41
2022-12-08T07:18:58.591Z,100029.16
2022-12-08T07:21:27.950Z,100027.69
2022-12-08T07:23:57.876Z,100023.91
2022-12-08T07:26:26.816Z,100032.50
2022-12-08T07:28:54.650Z,100025.19
2022-12-08T07:31:24.359Z,100033.22
2022-12-08T07:33:53.130Z,100033.31
2022-12-08T07:36:20.961Z,100029.78
2022-12-08T07:38:50.446Z,100019.41
2022-12-08T07:41:23.234Z,100028.00
2022-12-08T07:43:51.874Z,100022.34
2022-12-08T07:46:21.928Z,100029.34
2022-12-08T07:48:49.911Z,100013.28
2022-12-08T07:51:18.857Z,100019.13
2022-12-08T07:53:53.841Z,100023.63
2022-12-08T07:56:24.549Z,100035.88
2022-12-08T07:58:52.580Z,100034.31
2022-12-08T08:01:26.006Z,100032.84
2022-12-08T08:03:55.097Z,100029.16
2022-12-08T08:06:23.013Z,100028.56
2022-12-08T08:08:51.005Z,100028.75
2022-12-08T08:11:21.282Z,100031.47
2022-12-08T08:13:51.512Z,100012.28
2022-12-08T08:16:20.772Z,100022.69
2022-12-08T08:18:49.889Z,100033.78
2022-12-08T08:24:06.855Z,100035.03
2022-12-08T08:26:34.823Z,100037.66
2022-12-08T08:29:03.891Z,100028.13
2022-12-08T08:31:31.699Z,100035.16
2022-12-08T08:34:04.889Z,100029.84
2022-12-08T08:36:32.988Z,100027.97
2022-12-08T08:39:01.075Z,100032.97
2022-12-08T08:41:28.790Z,100023.13
2022-12-08T08:43:56.582Z,100032.31
2022-12-08T08:46:25.691Z,100032.00
2022-12-08T08:48:53.458Z,100008.94
2022-12-08T08:51:21.134Z,100036.81
2022-12-08T08:53:49.003Z,100044.69
2022-12-08T08:56:19.256Z,100028.31
2022-12-08T08:58:48.801Z,100027.06
2022-12-08T09:01:18.342Z,100027.47
2022-12-08T09:03:48.183Z,100023.81
2022-12-08T09:06:16.947Z,100028.75
2022-12-08T09:08:45.051Z,100030.09
2022-12-08T09:11:13.189Z,100030.22
2022-12-08T09:13:41.296Z,100029.28
2022-12-08T09:16:10.271Z,100024.47
2022-12-08T09:18:38.059Z,100023.41
2022-12-08T09:21:09.179Z,100026.13
2022-12-08T09:23:37.097Z,100032.09
2022-12-08T09:26:06.065Z,100033.97
2022-12-08T09:28:33.921Z,100030.81
2022-12-08T09:31:02.183Z,100022.88
2022-12-08T09:33:29.955Z,100024.53
2022-12-08T09:35:57.838Z,100032.94
2022-12-08T09:38:26.997Z,100027.91
2022-12-08T09:40:55.332Z,100034.81
2022-12-08T09:43:47.207Z,100018.06
2022-12-08T09:46:18.920Z,100021.41
2022-12-08T09:48:55.522Z,100012.59
2022-12-08T09:51:25.104Z,100016.59
2022-12-08T09:53:58.046Z,100012.00
2022-12-08T09:56:29.908Z,100024.97
2022-12-08T09:59:01.590Z,100019.97
2022-12-08T10:01:31.794Z,100020.91
2022-12-08T10:03:59.927Z,100020.56
2022-12-08T10:06:33.735Z,100021.91
2022-12-08T10:09:24.585Z,100020.34
2022-12-08T10:11:58.722Z,100013.44
2022-12-08T10:14:33.241Z,100019.63
2022-12-08T10:17:05.996Z,100029.34
2022-12-08T10:19:36.254Z,100012.44
2022-12-08T10:22:16.217Z,100019.56
2022-12-08T10:24:53.686Z,100010.97
2022-12-08T10:27:22.072Z,100008.09
2022-12-08T10:29:50.523Z,100013.09
2022-12-08T10:32:20.718Z,99987.31
2022-12-08T10:35:02.947Z,99999.50
2022-12-08T10:37:30.738Z,99995.94
2022-12-08T10:40:07.246Z,100002.84
2022-12-08T10:42:39.028Z,100000.72
2022-12-08T10:45:25.725Z,100000.72
2022-12-08T10:48:00.921Z,99995.28
2022-12-08T10:50:32.109Z,99991.94
2022-12-08T10:53:01.503Z,99997.78
2022-12-08T10:55:40.082Z,99990.25
2022-12-08T10:58:24.598Z,99985.03
2022-12-08T11:00:55.404Z,99976.44
2022-12-08T11:03:27.636Z,99977.03
2022-12-08T11:05:58.892Z,99969.00
2022-12-08T11:08:27.710Z,99972.75
2022-12-08T11:10:56.955Z,99958.59
2022-12-08T11:13:26.734Z,99964.06
2022-12-08T11:15:56.089Z,99961.31
2022-12-08T11:18:28.869Z,99955.16
2022-12-08T11:21:03.235Z,99970.22
2022-12-08T11:23:31.640Z,99951.09
2022-12-08T11:26:12.727Z,99952.66
2022-12-08T11:28:41.058Z,99955.47
2022-12-08T11:31:22.114Z,99949.53
2022-12-08T11:33:52.249Z,99932.53
2022-12-08T11:36:23.245Z,99920.13
2022-12-08T11:38:56.525Z,99947.03
2022-12-08T11:41:30.783Z,99935.63
2022-12-08T11:44:07.080Z,99934.69
2022-12-08T11:46:39.698Z,99925.25
2022-12-08T11:49:13.056Z,99920.97
2022-12-08T11:51:45.364Z,99931.28
2022-12-08T11:54:21.068Z,99929.63
2022-12-08T11:56:53.862Z,99897.66
2022-12-08T11:59:30.016Z,99906.28
2022-12-08T12:01:59.412Z,99926.31
2022-12-08T12:04:34.198Z,99926.53
2022-12-08T12:07:25.980Z,99919.63
2022-12-08T12:10:14.041Z,99918.00
2022-12-08T12:12:58.386Z,99912.03
2022-12-08T12:16:07.277Z,99914.19
2022-12-08T12:18:45.157Z,99923.72
2022-12-08T12:21:20.275Z,99923.47
2022-12-08T12:23:54.694Z,99888.09
2022-12-08T12:26:25.184Z,99918.97
2022-12-08T12:28:58.267Z,99924.34
2022-12-08T12:31:29.640Z,99916.59
2022-12-08T12:34:07.170Z,99909.56
2022-12-08T12:36:48.393Z,99909.94
2022-12-08T12:39:19.272Z,99897.41
2022-12-08T12:41:49.932Z,99915.06
2022-12-08T12:44:43.091Z,99871.09
2022-12-08T12:47:35.378Z,99909.22
2022-12-08T12:50:08.772Z,99893.50
2022-12-08T12:52:44.314Z,99906.38
2022-12-08T12:55:50.808Z,99901.59
2022-12-08T12:58:50.754Z,99908.28
2022-12-08T13:01:53.764Z,99908.88
2022-12-08T13:04:29.955Z,99908.41
2022-12-08T13:06:58.289Z,99880.19
2022-12-08T13:09:32.833Z,99901.88
2022-12-08T13:12:08.430Z,99908.53
2022-12-08T13:14:38.129Z,99898.28
2022-12-08T13:17:13.310Z,99906.38
2022-12-08T13:19:45.356Z,99899.84
2022-12-08T13:22:55.452Z,99902.22
2022-12-08T13:25:46.772Z,99903.16
2022-12-08T13:28:19.936Z,99877.06
2022-12-08T13:30:50.070Z,99899.97
2022-12-08T13:33:25.276Z,99899.25
2022-12-08T13:36:20.704Z,99890.22
2022-12-08T13:38:51.402Z,99877.19
2022-12-08T13:41:23.431Z,99888.50
2022-12-08T13:44:50.411Z,99889.22
2022-12-08T13:47:24.513Z,99886.47
2022-12-08T13:50:57.598Z,99891.50
2022-12-08T13:58:30.117Z,99866.81
2022-12-08T14:01:06.707Z,99888.28
2022-12-08T14:04:04.690Z,99894.84
2022-12-08T14:06:40.194Z,99889.94
2022-12-08T14:09:12.871Z,99830.38
2022-12-08T14:11:44.201Z,99889.94
2022-12-08T14:14:32.523Z,99886.97
2022-12-08T14:17:07.032Z,99881.25
2022-12-08T14:19:36.307Z,99886.00
2022-12-08T14:22:12.199Z,99892.31
2022-12-08T14:24:41.414Z,99889.09
2022-12-08T14:27:15.559Z,99890.38
2022-12-08T14:29:45.745Z,99892.66
2022-12-08T14:32:22.730Z,99891.09
2022-12-08T14:34:59.641Z,99889.72
2022-12-08T14:37:31.250Z,99883.50
2022-12-08T14:40:02.529Z,99888.16
2022-12-08T14:42:30.881Z,99895.06
2022-12-08T14:45:06.647Z,99895.63
2022-12-08T14:47:43.051Z,99873.50
2022-12-08T14:50:40.552Z,99891.13
2022-12-08T14:53:15.498Z,99897.19
2022-12-08T14:55:46.009Z,99885.38
2022-12-08T14:58:25.633Z,99869.88
2022-12-08T15:00:58.274Z,99898.75
2022-12-08T15:03:28.038Z,99856.31
2022-12-08T15:06:01.255Z,99897.41
2022-12-08T15:08:32.047Z,99903.25
2022-12-08T15:11:29.653Z,99904.09
2022-12-08T15:13:57.879Z,99903.25
2022-12-08T15:16:28.563Z,99880.25
2022-12-08T15:19:06.038Z,99910.16
2022-12-08T15:21:39.574Z,99839.63
2022-12-08T15:24:12.112Z,99904.22
2022-12-08T15:26:47.593Z,99893.22
2022-12-08T15:29:23.063Z,99898.94
2022-12-08T15:31:52.416Z,99857.22
2022-12-08T15:34:20.482Z,99900.00
2022-12-08T15:36:49.978Z,99893.94
2022-12-08T15:39:33.598Z,99898.94
2022-12-08T15:42:02.610Z,99898.94
2022-12-08T15:44:32.841Z,99893.94
2022-12-08T15:47:01.264Z,99892.03
2022-12-08T15:49:29.333Z,99893.81
2022-12-08T15:52:08.072Z,99888.69
2022-12-08T15:54:40.542Z,99887.25
2022-12-08T15:57:22.242Z,99897.00
2022-12-08T16:00:05.584Z,99893.44
2022-12-08T16:02:56.201Z,99895.59
2022-12-08T16:08:44.678Z,99900.94
2022-12-08T16:11:56.583Z,99880.78
2022-12-08T16:14:36.830Z,99899.16
2022-12-08T16:16:53.915Z,99894.38
2022-12-08T16:19:21.744Z,99879.25
2022-12-08T16:22:30.247Z,99882.22
2022-12-08T16:24:40.455Z,99891.53
2022-12-08T16:30:01.704Z,99881.28
2022-12-08T16:32:32.586Z,99778.53
2022-12-08T16:35:02.277Z,99891.03
2022-12-08T16:37:30.359Z,99893.81
2022-12-08T16:39:59.255Z,99889.63
2022-12-08T16:42:47.673Z,99896.97
2022-12-08T16:45:18.504Z,99896.88
2022-12-08T16:47:49.239Z,99899.25
2022-12-08T16:50:19.880Z,99659.38
2022-12-08T16:52:50.547Z,99893.41
2022-12-08T16:55:20.923Z,99894.38
2022-12-08T16:57:51.194Z,99897.94
2022-12-08T17:00:23.619Z,99898.44
2022-12-08T17:02:52.232Z,99896.28
2022-12-08T17:05:22.522Z,99839.53
2022-12-08T17:07:52.570Z,99891.03
2022-12-08T17:10:22.958Z,99892.72
2022-12-08T17:12:52.435Z,99892.50
2022-12-08T17:15:22.151Z,99892.59
2022-12-08T17:17:53.287Z,99889.66
2022-12-08T17:20:23.016Z,99884.50
2022-12-08T17:22:51.069Z,99893.66
2022-12-08T17:25:20.450Z,99853.09
2022-12-08T17:27:48.377Z,99889.63
2022-12-08T17:30:18.896Z,99882.94
2022-12-08T17:32:46.881Z,99885.66
2022-12-08T17:35:15.817Z,99886.59
2022-12-08T17:37:44.301Z,99886.78
2022-12-08T17:40:12.708Z,99878.81
2022-12-08T17:42:40.827Z,99888.25
2022-12-08T17:45:09.643Z,99892.19
2022-12-08T17:47:39.180Z,99885.66
2022-12-08T17:50:08.482Z,99888.06
2022-12-08T17:52:36.497Z,99890.28
2022-12-08T17:55:04.669Z,99889.81
2022-12-08T17:57:32.436Z,99891.59
2022-12-08T18:00:00.249Z,99894.31
2022-12-08T18:02:28.838Z,99878.41
2022-12-08T18:04:58.099Z,99881.03
2022-12-08T18:07:25.786Z,99885.75
2022-12-08T18:09:53.624Z,99877.78
2022-12-08T18:12:23.843Z,99882.19
2022-12-08T18:14:52.525Z,99887.53
2022-12-08T18:17:20.672Z,99883.53
2022-12-08T18:19:48.495Z,99886.16
2022-12-08T18:22:17.630Z,99880.28
2022-12-08T18:24:47.514Z,99886.78
2022-12-08T18:27:15.241Z,99892.84
2022-12-08T18:29:43.037Z,99887.00
2022-12-08T18:32:10.921Z,99889.09
2022-12-08T18:34:38.661Z,99890.88
2022-12-08T18:37:07.352Z,99890.03
2022-12-08T18:39:37.465Z,99882.50
2022-12-08T18:42:22.945Z,99888.44
2022-12-08T18:44:51.828Z,99887.25
2022-12-08T18:47:20.764Z,99894.97
2022-12-08T18:49:48.538Z,99891.19
2022-12-08T18:52:22.094Z,99893.50
2022-12-08T18:55:06.397Z,99883.22
2022-12-08T18:57:34.671Z,99883.53
2022-12-08T19:00:03.317Z,99882.19
2022-12-08T19:02:31.213Z,99874.34
2022-12-08T19:04:59.268Z,99883.03
2022-12-08T19:07:27.257Z,99877.31
2022-12-08T19:09:56.373Z,99884.22
2022-12-08T19:12:24.198Z,99886.94
2022-12-08T19:14:51.883Z,99890.16
2022-12-08T19:17:19.747Z,99888.88
2022-12-08T19:19:47.585Z,99893.28
2022-12-08T19:22:15.453Z,99896.63
2022-12-08T19:24:43.455Z,99892.91
2022-12-08T19:27:12.493Z,99891.03
2022-12-08T19:29:40.244Z,99899.41
2022-12-08T19:32:08.001Z,99896.47
2022-12-08T19:34:35.778Z,99897.31
2022-12-08T19:37:03.532Z,99904.72
2022-12-08T19:39:48.684Z,99898.25
2022-12-08T19:42:37.883Z,99889.97
2022-12-08T19:45:08.418Z,99892.09
2022-12-08T19:47:36.322Z,99896.47
2022-12-08T19:50:22.528Z,99895.66
2022-12-08T19:52:50.810Z,99886.34
2022-12-08T19:55:19.031Z,99884.97
2022-12-08T19:57:48.161Z,99894.59
2022-12-08T20:00:16.713Z,99896.38
2022-12-08T20:02:44.623Z,99898.16
2022-12-08T20:05:13.744Z,99900.66
2022-12-08T20:07:42.235Z,99898.88
2022-12-08T20:10:15.609Z,99899.50
2022-12-08T20:12:43.597Z,99893.75
2022-12-08T20:15:14.723Z,99900.44
2022-12-08T20:17:43.433Z,99891.88
2022-12-08T20:20:12.859Z,99897.34
2022-12-08T20:22:41.389Z,99897.25
2022-12-08T20:25:13.095Z,99893.06
2022-12-08T20:27:41.377Z,99897.72
2022-12-08T20:30:16.516Z,99896.03
2022-12-08T20:32:46.187Z,99901.84
2022-12-08T20:35:14.241Z,99901.03
2022-12-08T20:37:42.280Z,99901.84
2022-12-08T20:40:10.723Z,99902.47
2022-12-08T20:42:38.696Z,99896.03
2022-12-08T20:45:08.973Z,99892.13
2022-12-08T20:47:37.340Z,99903.53
2022-12-08T20:50:08.756Z,99896.63
2022-12-08T20:52:37.891Z,99900.81
2022-12-08T20:55:07.869Z,99903.41
2022-12-08T20:57:36.128Z,99896.63
2022-12-08T21:00:05.486Z,99892.59
2022-12-08T21:02:33.879Z,99901.28
2022-12-08T21:05:01.899Z,99896.47
2022-12-08T21:07:32.290Z,99894.41
2022-12-08T21:10:00.205Z,99901.19
2022-12-08T21:12:28.163Z,99898.00
2022-12-08T21:14:56.031Z,99888.13
2022-12-08T21:17:23.958Z,99890.41
2022-12-08T21:19:52.236Z,99893.75
2022-12-08T21:22:21.113Z,99902.13
2022-12-08T21:24:50.473Z,99898.50
2022-12-08T21:27:18.437Z,99896.63
2022-12-08T21:29:46.364Z,99901.28
2022-12-08T21:32:14.171Z,99902.13
2022-12-08T21:34:44.001Z,99895.31
2022-12-08T21:37:11.976Z,99900.19
2022-12-08T21:39:39.830Z,99887.78
2022-12-08T21:42:33.678Z,99897.72
2022-12-08T21:45:02.099Z,99898.41
2022-12-08T21:47:30.227Z,99898.75
2022-12-08T21:49:58.177Z,99902.34
2022-12-08T21:52:26.021Z,99896.25
2022-12-08T21:54:53.911Z,99898.88
2022-12-08T21:57:23.346Z,99901.38
2022-12-08T21:59:51.785Z,99901.38
2022-12-08T22:02:22.474Z,99896.88
2022-12-08T22:04:52.565Z,99905.41
2022-12-08T22:07:21.091Z,99898.50
2022-12-08T22:09:49.223Z,99903.75
2022-12-08T22:12:17.580Z,99901.84
2022-12-08T22:14:48.569Z,99907.34
2022-12-08T22:17:16.670Z,99907.09
2022-12-08T22:19:44.645Z,99907.94
2022-12-08T22:22:12.500Z,99908.97
2022-12-08T22:24:40.245Z,99919.09
2022-12-08T22:27:07.949Z,99916.47
2022-12-08T22:29:35.704Z,99911.75
2022-12-08T22:32:05.251Z,99904.59
2022-12-08T22:34:33.227Z,99906.16
2022-12-08T22:37:01.112Z,99900.81
2022-12-08T22:39:28.928Z,99901.47
2022-12-08T22:41:56.628Z,99900.41
2022-12-08T22:44:24.588Z,99897.78
2022-12-08T22:46:52.521Z,99898.72
2022-12-08T22:49:21.688Z,99897.78
2022-12-08T22:51:49.665Z,99895.78
2022-12-08T22:54:17.473Z,99896.47
2022-12-08T22:56:45.451Z,99887.31
2022-12-08T22:59:13.178Z,99899.34
2022-12-08T23:01:41.199Z,99896.63
2022-12-08T23:04:17.251Z,99896.25
2022-12-08T23:06:46.948Z,99894.34
2022-12-08T23:09:14.832Z,99891.75
2022-12-08T23:11:44.252Z,99884.00
2022-12-08T23:14:12.087Z,99889.84
2022-12-08T23:16:39.920Z,99881.28
2022-12-08T23:19:08.170Z,99885.44
2022-12-08T23:21:36.063Z,99887.13
2022-12-08T23:24:05.931Z,99887.00
2022-12-08T23:26:35.337Z,99886.16
2022-12-08T23:29:04.026Z,99886.06
2022-12-08T23:31:32.172Z,99891.28
2022-12-08T23:34:00.038Z,99882.84
2022-12-08T23:36:27.798Z,99890.34
2022-12-08T23:38:55.549Z,99886.06
2022-12-08T23:41:24.615Z,99885.00
2022-12-08T23:43:53.293Z,99882.72
2022-12-08T23:46:23.298Z,99881.66
2022-12-08T23:48:51.755Z,99884.16
2022-12-08T23:51:19.602Z,99876.03
2022-12-08T23:53:47.721Z,99873.41
2022-12-08T23:56:17.972Z,99876.25
2022-12-08T23:58:47.742Z,99874.38
